createdAt,value
2023-03-11T00:00:27.516Z,100616.66
2023-03-11T00:02:59.225Z,100615.56
2023-03-11T00:05:27.116Z,100612.31
2023-03-11T00:07:53.924Z,100625.72
2023-03-11T00:10:24.700Z,100623.72
2023-03-11T00:12:51.579Z,100630.78
2023-03-11T00:15:18.018Z,100631.06
2023-03-11T00:17:44.372Z,100632.69
2023-03-11T00:20:31.459Z,100628.66
2023-03-11T00:22:58.574Z,100638.03
2023-03-11T00:25:28.010Z,100650.22
2023-03-11T00:27:54.603Z,100647.94
2023-03-11T00:30:22.518Z,100657.97
2023-03-11T00:32:53.515Z,100659.06
2023-03-11T00:35:24.261Z,100671.50
2023-03-11T00:37:54.613Z,100667.97
2023-03-11T00:40:22.231Z,100677.75
2023-03-11T00:42:48.592Z,100659.19
2023-03-11T00:45:15.630Z,100663.13
2023-03-11T00:47:42.149Z,100674.75
2023-03-11T00:50:09.293Z,100681.25
2023-03-11T00:52:35.694Z,100690.63
2023-03-11T00:55:02.048Z,100687.38
2023-03-11T00:57:28.453Z,100703.50
2023-03-11T00:59:55.401Z,100694.56
2023-03-11T01:02:22.701Z,100695.38
2023-03-11T01:04:54.327Z,100706.34
2023-03-11T01:07:20.810Z,100708.38
2023-03-11T01:09:47.209Z,100713.41
2023-03-11T01:12:13.678Z,100692.03
2023-03-11T01:14:39.934Z,100700.28
2023-03-11T01:17:06.347Z,100697.84
2023-03-11T01:19:32.812Z,100711.94
2023-03-11T01:21:59.157Z,100729.53
2023-03-11T01:24:25.529Z,100716.25
2023-03-11T01:26:51.927Z,100712.72
2023-03-11T01:29:18.315Z,100711.94
2023-03-11T01:31:44.678Z,100706.09
2023-03-11T01:34:11.062Z,100710.97
2023-03-11T01:36:37.466Z,100712.16
2023-03-11T01:39:04.234Z,100714.19
2023-03-11T01:41:30.732Z,100723.44
2023-03-11T01:43:57.049Z,100737.78
2023-03-11T01:46:26.973Z,100722.47
2023-03-11T01:49:05.475Z,100728.59
2023-03-11T01:51:35.729Z,100741.19
2023-03-11T01:54:07.029Z,100717.59
2023-03-11T01:56:34.381Z,100715.84
2023-03-11T01:59:01.009Z,100728.59
2023-03-11T02:01:27.475Z,100711.75
2023-03-11T02:03:55.071Z,100723.28
2023-03-11T02:06:23.722Z,100711.38
2023-03-11T02:08:50.780Z,100720.34
2023-03-11T02:11:23.944Z,100732.41
2023-03-11T02:13:52.346Z,100729.69
2023-03-11T02:16:18.799Z,100732.56
2023-03-11T02:18:45.156Z,100745.00
2023-03-11T02:21:30.505Z,100747.59
2023-03-11T02:24:07.573Z,100746.66
2023-03-11T02:26:55.483Z,100748.13
2023-03-11T02:29:22.815Z,100743.13
2023-03-11T02:31:49.938Z,100741.75
2023-03-11T02:34:23.628Z,100753.28
2023-03-11T02:36:50.085Z,100740.03
2023-03-11T02:39:16.450Z,100761.44
2023-03-11T02:41:47.010Z,100766.72
2023-03-11T02:44:16.254Z,100764.00
2023-03-11T02:46:43.151Z,100767.25
2023-03-11T02:49:10.944Z,100762.38
2023-03-11T02:51:37.386Z,100765.38
2023-03-11T02:54:04.980Z,100770.66
2023-03-11T02:56:31.675Z,100765.91
2023-03-11T02:58:58.138Z,100768.91
2023-03-11T03:01:24.478Z,100780.44
2023-03-11T03:03:50.950Z,100772.16
2023-03-11T03:06:18.163Z,100782.44
2023-03-11T03:08:44.833Z,100775.28
2023-03-11T03:11:11.262Z,100782.28
2023-03-11T03:13:37.671Z,100776.75
2023-03-11T03:16:04.421Z,100780.81
2023-03-11T03:18:30.939Z,100774.31
2023-03-11T03:20:57.318Z,100784.88
2023-03-11T03:23:23.716Z,100773.09
2023-03-11T03:25:50.154Z,100763.63
2023-03-11T03:28:16.475Z,100780.41
2023-03-11T03:30:42.941Z,100782.69
2023-03-11T03:33:09.313Z,100785.81
2023-03-11T03:35:35.889Z,100779.97
2023-03-11T03:38:02.378Z,100794.19
2023-03-11T03:40:28.804Z,100802.19
2023-03-11T03:42:55.165Z,100801.09
2023-03-11T03:45:21.603Z,100795.00
2023-03-11T03:47:48.113Z,100815.44
2023-03-11T03:50:14.439Z,100808.78
2023-03-11T03:52:40.824Z,100802.41
2023-03-11T03:55:07.617Z,100806.47
2023-03-11T03:57:34.035Z,100824.84
2023-03-11T04:00:00.502Z,100827.00
2023-03-11T04:02:27.471Z,100837.13
2023-03-11T04:04:53.897Z,100827.47
2023-03-11T04:07:20.306Z,100832.38
2023-03-11T04:09:46.752Z,100840.50
2023-03-11T04:12:14.794Z,100825.59
2023-03-11T04:14:41.620Z,100844.03
2023-03-11T04:17:10.842Z,100827.75
2023-03-11T04:19:37.295Z,100841.84
2023-03-11T04:22:03.807Z,100852.13
2023-03-11T04:24:30.117Z,100855.38
2023-03-11T04:26:56.453Z,100860.78
2023-03-11T04:29:22.835Z,100856.13
2023-03-11T04:31:49.242Z,100859.63
2023-03-11T04:34:15.603Z,100866.94
2023-03-11T04:36:42.113Z,100862.59
2023-03-11T04:39:09.238Z,100867.84
2023-03-11T04:41:36.965Z,100860.25
2023-03-11T04:44:03.352Z,100853.03
2023-03-11T04:46:29.726Z,100862.47
2023-03-11T04:48:56.176Z,100873.44
2023-03-11T04:51:22.512Z,100842.88
2023-03-11T04:53:48.811Z,100867.69
2023-03-11T04:56:15.132Z,100882.03
2023-03-11T04:58:41.453Z,100873.00
2023-03-11T05:01:07.826Z,100879.78
2023-03-11T05:03:34.253Z,100893.69
2023-03-11T05:06:00.617Z,100906.28
2023-03-11T05:08:26.952Z,100888.22
2023-03-11T05:10:53.808Z,100892.44
2023-03-11T05:13:21.138Z,100889.66
2023-03-11T05:15:47.892Z,100903.53
2023-03-11T05:18:14.559Z,100884.53
2023-03-11T05:20:41.104Z,100894.94
2023-03-11T05:23:07.429Z,100907.28
2023-03-11T05:25:33.862Z,100894.22
2023-03-11T05:28:00.224Z,100892.72
2023-03-11T05:30:26.716Z,100890.16
2023-03-11T05:32:54.049Z,100890.41
2023-03-11T05:35:20.479Z,100886.56
2023-03-11T05:37:46.904Z,100881.78
2023-03-11T05:40:13.433Z,100898.59
2023-03-11T05:42:39.721Z,100917.03
2023-03-11T05:45:06.380Z,100912.94
2023-03-11T05:47:32.726Z,100914.25
2023-03-11T05:49:59.141Z,100901.16
2023-03-11T05:52:25.569Z,100916.09
2023-03-11T05:54:52.331Z,100914.69
2023-03-11T05:57:19.552Z,100926.16
2023-03-11T05:59:45.900Z,100902.97
2023-03-11T06:02:12.492Z,100927.91
2023-03-11T06:04:38.803Z,100932.34
2023-03-11T06:07:05.307Z,100925.94
2023-03-11T06:09:31.700Z,100923.84
2023-03-11T06:11:58.004Z,100929.19
2023-03-11T06:14:24.410Z,100946.00
2023-03-11T06:16:50.739Z,100925.38
2023-03-11T06:19:17.103Z,100952.97
2023-03-11T06:21:43.422Z,100957.03
2023-03-11T06:24:09.737Z,100960.22
2023-03-11T06:26:36.112Z,100968.59
2023-03-11T06:29:02.597Z,100968.44
2023-03-11T06:31:29.602Z,100980.16
2023-03-11T06:33:56.497Z,100974.88
2023-03-11T06:36:23.258Z,100979.69
2023-03-11T06:38:52.532Z,100984.22
2023-03-11T06:41:18.894Z,100983.06
2023-03-11T06:43:45.156Z,101000.22
2023-03-11T06:46:15.575Z,100984.69
2023-03-11T06:48:42.134Z,100994.72
2023-03-11T06:51:10.218Z,100994.41
2023-03-11T06:53:36.630Z,100980.75
2023-03-11T06:56:09.519Z,100992.69
2023-03-11T06:58:37.751Z,100986.84
2023-03-11T07:01:07.924Z,100991.16
2023-03-11T07:03:34.410Z,100992.28
2023-03-11T07:06:01.087Z,101005.50
2023-03-11T07:08:28.059Z,101004.75
2023-03-11T07:11:03.487Z,101015.00
2023-03-11T07:13:29.848Z,101022.78
2023-03-11T07:16:00.755Z,101009.09
2023-03-11T07:18:27.181Z,101016.53
2023-03-11T07:20:53.538Z,101020.28
2023-03-11T07:23:20.362Z,101022.31
2023-03-11T07:25:47.773Z,101028.88
2023-03-11T07:28:14.529Z,101019.88
2023-03-11T07:30:41.121Z,101039.50
2023-03-11T07:33:07.573Z,101039.34
2023-03-11T07:35:35.782Z,101040.00
2023-03-11T07:38:02.150Z,101046.06
2023-03-11T07:40:28.523Z,101032.47
2023-03-11T07:42:54.894Z,101049.72
2023-03-11T07:45:21.316Z,101051.03
2023-03-11T07:47:47.663Z,101058.81
2023-03-11T07:50:14.141Z,101048.16
2023-03-11T07:52:40.500Z,101056.53
2023-03-11T07:55:07.127Z,101063.44
2023-03-11T07:57:33.701Z,101076.84
2023-03-11T08:00:00.746Z,101063.97
2023-03-11T08:02:27.640Z,101061.38
2023-03-11T08:04:55.942Z,101060.34
2023-03-11T08:07:22.486Z,101067.78
2023-03-11T08:09:49.021Z,101079.47
2023-03-11T08:12:16.139Z,101073.22
2023-03-11T08:14:42.526Z,101055.06
2023-03-11T08:17:09.001Z,101088.69
2023-03-11T08:19:35.896Z,101087.41
2023-03-11T08:22:03.434Z,101075.84
2023-03-11T08:24:29.892Z,101074.56
2023-03-11T08:26:56.253Z,101087.78
2023-03-11T08:29:24.379Z,101084.25
2023-03-11T08:31:50.807Z,101090.41
2023-03-11T08:34:17.668Z,101077.22
2023-03-11T08:36:44.134Z,101090.00
2023-03-11T08:39:10.547Z,101098.91
2023-03-11T08:41:36.948Z,101088.28
2023-03-11T08:44:03.477Z,101093.47
2023-03-11T08:46:32.912Z,101094.94
2023-03-11T08:49:01.321Z,101090.75
2023-03-11T08:51:30.395Z,101082.84
2023-03-11T08:53:57.082Z,101080.28
2023-03-11T08:56:23.604Z,101079.09
2023-03-11T08:58:49.975Z,101084.50
2023-03-11T09:01:16.411Z,101100.75
2023-03-11T09:03:42.900Z,101101.19
2023-03-11T09:06:13.888Z,101108.97
2023-03-11T09:08:40.394Z,101105.44
2023-03-11T09:11:07.087Z,101109.50
2023-03-11T09:13:33.725Z,101104.75
2023-03-11T09:16:00.458Z,101109.41
2023-03-11T09:18:26.992Z,101114.59
2023-03-11T09:20:53.323Z,101118.97
2023-03-11T09:23:19.788Z,101116.56
2023-03-11T09:25:46.280Z,101124.69
2023-03-11T09:28:12.733Z,101128.44
2023-03-11T09:30:39.304Z,101137.84
2023-03-11T09:33:06.197Z,101129.38
2023-03-11T09:35:32.620Z,101136.13
2023-03-11T09:37:59.043Z,101139.66
2023-03-11T09:40:27.971Z,101129.75
2023-03-11T09:43:19.224Z,101140.59
2023-03-11T09:45:53.593Z,101128.81
2023-03-11T09:48:36.331Z,101138.81
2023-03-11T09:51:10.923Z,101143.13
2023-03-11T09:53:46.956Z,101154.22
2023-03-11T09:56:16.629Z,101139.38
2023-03-11T09:59:04.879Z,101145.25
2023-03-11T10:01:37.280Z,101146.25
2023-03-11T10:04:13.038Z,101139.19
2023-03-11T10:06:41.903Z,101143.34
2023-03-11T10:09:36.128Z,101165.22
2023-03-11T10:12:19.970Z,101142.88
2023-03-11T10:15:07.367Z,101152.75
2023-03-11T10:17:58.501Z,101157.56
2023-03-11T10:20:28.034Z,101163.63
2023-03-11T10:23:14.667Z,101157.97
2023-03-11T10:25:59.361Z,101148.66
2023-03-11T10:28:32.803Z,101154.69
2023-03-11T10:31:20.848Z,101151.63
2023-03-11T10:33:58.921Z,101134.38
2023-03-11T10:36:35.444Z,101145.22
2023-03-11T10:39:02.702Z,101149.59
2023-03-11T10:41:37.835Z,101140.69
2023-03-11T10:44:10.903Z,101150.31
2023-03-11T10:46:37.254Z,101120.78
2023-03-11T10:49:08.261Z,101147.75
2023-03-11T10:51:35.853Z,101145.66
2023-03-11T10:54:04.003Z,101137.31
2023-03-11T10:56:39.394Z,101144.13
2023-03-11T10:59:23.505Z,101141.47
2023-03-11T11:02:00.796Z,101150.09
2023-03-11T11:04:30.715Z,101158.69
2023-03-11T11:06:57.415Z,101155.94
2023-03-11T11:09:25.737Z,101156.34
2023-03-11T11:12:05.634Z,101151.25
2023-03-11T11:14:48.964Z,101165.09
2023-03-11T11:17:29.995Z,101162.63
2023-03-11T11:19:59.029Z,101163.69
2023-03-11T11:22:25.930Z,101156.78
2023-03-11T11:24:55.040Z,101152.59
2023-03-11T11:27:24.163Z,101168.97
2023-03-11T11:30:08.534Z,101167.41
2023-03-11T11:32:36.151Z,101152.09
2023-03-11T11:35:10.589Z,101173.50
2023-03-11T11:37:41.577Z,101171.13
2023-03-11T11:40:14.084Z,101173.94
2023-03-11T11:42:46.084Z,101162.81
2023-03-11T11:45:14.634Z,101167.78
2023-03-11T11:47:46.816Z,101152.69
2023-03-11T11:50:16.146Z,101169.38
2023-03-11T11:52:52.446Z,101174.00
2023-03-11T11:55:23.850Z,101171.09
2023-03-11T11:57:51.154Z,101156.63
2023-03-11T12:00:20.526Z,101161.50
2023-03-11T12:02:56.274Z,101166.78
2023-03-11T12:05:30.277Z,101171.38
2023-03-11T12:08:31.982Z,101183.69
2023-03-11T12:11:17.524Z,101167.69
2023-03-11T12:14:11.458Z,101178.03
2023-03-11T12:17:04.033Z,101167.56
2023-03-11T12:19:49.830Z,101180.09
2023-03-11T12:22:48.943Z,101177.56
2023-03-11T12:25:33.846Z,101181.22
2023-03-11T12:28:00.137Z,101172.03
2023-03-11T12:30:35.441Z,101158.94
2023-03-11T12:33:14.856Z,101141.75
2023-03-11T12:35:50.207Z,101151.09
2023-03-11T12:38:32.866Z,101163.97
2023-03-11T12:41:04.796Z,101166.41
2023-03-11T12:43:31.112Z,101164.50
2023-03-11T12:45:58.280Z,101141.13
2023-03-11T12:48:27.310Z,101155.31
2023-03-11T12:50:54.267Z,101159.59
2023-03-11T12:53:40.892Z,101152.56
2023-03-11T12:56:32.993Z,101155.78
2023-03-11T12:59:47.804Z,101148.97
2023-03-11T13:02:42.166Z,101162.50
2023-03-11T13:05:26.916Z,101155.00
2023-03-11T13:08:10.512Z,101157.06
2023-03-11T13:10:49.865Z,101151.66
2023-03-11T13:13:25.447Z,101149.81
2023-03-11T13:15:53.114Z,101148.84
2023-03-11T13:18:23.624Z,101156.56
2023-03-11T13:21:37.623Z,101159.13
2023-03-11T13:24:19.045Z,101156.06
2023-03-11T13:26:57.592Z,101155.81
2023-03-11T13:29:40.350Z,101136.19
2023-03-11T13:32:19.602Z,101159.00
2023-03-11T13:35:18.771Z,101141.00
2023-03-11T13:38:22.659Z,101155.75
2023-03-11T13:40:49.437Z,101152.47
2023-03-11T13:43:21.691Z,101144.81
2023-03-11T13:45:56.465Z,101154.09
2023-03-11T13:48:35.058Z,101146.25
2023-03-11T13:51:15.220Z,101147.00
2023-03-11T13:53:49.957Z,101141.25
2023-03-11T13:56:18.404Z,101146.66
2023-03-11T13:58:44.794Z,101157.00
2023-03-11T14:01:16.299Z,101143.00
2023-03-11T14:03:44.311Z,101162.78
2023-03-11T14:06:19.224Z,101158.94
2023-03-11T14:08:53.871Z,101162.34
2023-03-11T14:11:25.805Z,101143.72
2023-03-11T14:13:52.170Z,101159.06
2023-03-11T14:16:31.892Z,101154.56
2023-03-11T14:19:06.736Z,101163.03
2023-03-11T14:21:33.532Z,101169.78
2023-03-11T14:24:02.789Z,101162.06
2023-03-11T14:26:34.910Z,101168.91
2023-03-11T14:29:08.100Z,101158.38
2023-03-11T14:31:39.904Z,101179.09
2023-03-11T14:34:22.162Z,101163.25
2023-03-11T14:36:50.981Z,101170.81
2023-03-11T14:39:26.520Z,101179.28
2023-03-11T14:41:57.064Z,101177.81
2023-03-11T14:44:25.307Z,101170.31
2023-03-11T14:46:55.543Z,101179.75
2023-03-11T14:49:23.492Z,101167.78
2023-03-11T14:51:59.017Z,101176.66
2023-03-11T14:54:29.538Z,101179.69
2023-03-11T14:57:10.407Z,101189.16
2023-03-11T14:59:39.005Z,101185.13
2023-03-11T15:02:28.152Z,101170.84
2023-03-11T15:04:58.741Z,101160.41
2023-03-11T15:07:25.803Z,101181.25
2023-03-11T15:09:52.279Z,101173.75
2023-03-11T15:13:04.025Z,101175.78
2023-03-11T15:15:30.364Z,101171.59
2023-03-11T15:17:58.934Z,101166.91
2023-03-11T15:20:29.361Z,101170.16
2023-03-11T15:22:57.882Z,101167.72
2023-03-11T15:25:24.264Z,101159.97
2023-03-11T15:27:50.654Z,101173.63
2023-03-11T15:30:24.390Z,101186.16
2023-03-11T15:32:51.229Z,101172.75
2023-03-11T15:35:22.017Z,101175.53
2023-03-11T15:37:51.065Z,101162.25
2023-03-11T15:40:35.285Z,101176.03
2023-03-11T15:43:14.629Z,101183.50
2023-03-11T15:45:41.484Z,101183.81
2023-03-11T15:48:12.084Z,101169.31
2023-03-11T15:50:53.849Z,101171.06
2023-03-11T15:53:21.981Z,101176.22
2023-03-11T15:55:48.411Z,101165.22
2023-03-11T15:58:16.733Z,101161.97
2023-03-11T16:00:48.688Z,101170.91
2023-03-11T16:03:15.628Z,101178.19
2023-03-11T16:05:41.979Z,101166.50
2023-03-11T16:08:08.422Z,101168.63
2023-03-11T16:10:35.149Z,101165.75
2023-03-11T16:13:01.506Z,101142.22
2023-03-11T16:15:36.418Z,101172.13
2023-03-11T16:18:04.978Z,101177.97
2023-03-11T16:20:37.003Z,101170.47
2023-03-11T16:23:03.850Z,101169.84
2023-03-11T16:25:39.090Z,101164.50
2023-03-11T16:28:06.107Z,101171.50
2023-03-11T16:30:34.611Z,101167.59
2023-03-11T16:33:03.957Z,101155.47
2023-03-11T16:35:31.134Z,101171.09
2023-03-11T16:37:57.544Z,101165.59
2023-03-11T16:40:26.065Z,101175.38
2023-03-11T16:42:57.195Z,101171.19
2023-03-11T16:45:23.726Z,101174.00
2023-03-11T16:47:50.078Z,101170.59
2023-03-11T16:50:16.537Z,101171.94
2023-03-11T16:52:42.904Z,101177.31
2023-03-11T16:55:09.666Z,101177.78
2023-03-11T16:57:35.992Z,101172.94
2023-03-11T17:00:02.481Z,101180.88
2023-03-11T17:02:28.886Z,101171.31
2023-03-11T17:04:55.982Z,101191.44
2023-03-11T17:07:22.441Z,101178.72
2023-03-11T17:09:48.781Z,101178.84
2023-03-11T17:12:15.130Z,101183.84
2023-03-11T17:14:41.457Z,101166.41
2023-03-11T17:17:07.739Z,101193.47
2023-03-11T17:19:34.237Z,101187.22
2023-03-11T17:22:00.567Z,101191.19
2023-03-11T17:24:26.826Z,101192.09
2023-03-11T17:26:53.136Z,101189.25
2023-03-11T17:29:19.376Z,101197.13
2023-03-11T17:31:45.771Z,101196.34
2023-03-11T17:34:12.175Z,101196.88
2023-03-11T17:36:38.536Z,101177.91
2023-03-11T17:39:04.864Z,101196.75
2023-03-11T17:41:31.244Z,101188.44
2023-03-11T17:43:57.544Z,101205.59
2023-03-11T17:46:24.009Z,101195.38
2023-03-11T17:48:53.007Z,101207.34
2023-03-11T17:51:22.158Z,101207.00
2023-03-11T17:53:49.276Z,101217.50
2023-03-11T17:56:18.823Z,101204.22
2023-03-11T17:58:45.232Z,101210.50
2023-03-11T18:01:18.394Z,101205.22
2023-03-11T18:03:44.745Z,101196.97
2023-03-11T18:06:11.111Z,101216.25
2023-03-11T18:08:38.522Z,101216.19
2023-03-11T18:11:06.251Z,101234.94
2023-03-11T18:13:33.511Z,101226.72
2023-03-11T18:16:02.269Z,101232.03
2023-03-11T18:18:30.359Z,101236.25
2023-03-11T18:21:04.763Z,101241.53
2023-03-11T18:23:31.524Z,101229.31
2023-03-11T18:25:57.831Z,101241.00
2023-03-11T18:28:24.204Z,101231.22
2023-03-11T18:30:50.523Z,101237.31
2023-03-11T18:33:16.965Z,101238.00
2023-03-11T18:35:43.301Z,101226.00
2023-03-11T18:38:09.584Z,101243.66
2023-03-11T18:40:35.947Z,101225.72
2023-03-11T18:43:02.169Z,101239.72
2023-03-11T18:45:29.262Z,101244.47
2023-03-11T18:47:55.615Z,101230.72
2023-03-11T18:50:21.841Z,101247.00
2023-03-11T18:52:51.793Z,101238.66
2023-03-11T18:55:19.339Z,101235.97
2023-03-11T18:57:45.916Z,101249.31
2023-03-11T19:00:12.802Z,101242.38
2023-03-11T19:02:39.249Z,101243.19
2023-03-11T19:05:06.117Z,101231.63
2023-03-11T19:07:32.537Z,101240.34
2023-03-11T19:09:58.804Z,101253.41
2023-03-11T19:12:27.744Z,101241.59
2023-03-11T19:14:54.108Z,101252.44
2023-03-11T19:17:20.368Z,101246.75
2023-03-11T19:19:46.669Z,101239.19
2023-03-11T19:22:13.008Z,101247.88
2023-03-11T19:24:39.494Z,101242.03
2023-03-11T19:27:05.805Z,101240.53
2023-03-11T19:29:32.267Z,101237.69
2023-03-11T19:31:58.583Z,101234.53
2023-03-11T19:34:24.983Z,101232.66
2023-03-11T19:36:51.251Z,101234.16
2023-03-11T19:39:17.630Z,101214.16
2023-03-11T19:41:43.905Z,101234.28
2023-03-11T19:44:10.248Z,101228.31
2023-03-11T19:46:36.651Z,101234.16
2023-03-11T19:49:03.489Z,101242.56
2023-03-11T19:51:38.847Z,101234.00
2023-03-11T19:54:10.757Z,101234.00
2023-03-11T19:56:37.182Z,101230.28
2023-03-11T19:59:03.489Z,101247.41
2023-03-11T20:01:29.855Z,101240.97
2023-03-11T20:03:56.200Z,101229.34
2023-03-11T20:06:22.586Z,101238.63
2023-03-11T20:08:50.365Z,101234.28
2023-03-11T20:11:16.918Z,101226.09
2023-03-11T20:13:43.335Z,101243.63
2023-03-11T20:16:11.107Z,101244.06
2023-03-11T20:18:37.606Z,101249.06
2023-03-11T20:21:04.649Z,101249.16
2023-03-11T20:23:30.988Z,101224.81
2023-03-11T20:25:57.372Z,101241.25
2023-03-11T20:28:23.831Z,101240.34
2023-03-11T20:30:50.165Z,101253.91
2023-03-11T20:33:16.704Z,101246.31
2023-03-11T20:35:43.062Z,101249.81
2023-03-11T20:38:09.441Z,101237.38
2023-03-11T20:40:35.789Z,101238.22
2023-03-11T20:43:02.205Z,101242.41
2023-03-11T20:45:28.449Z,101259.25
2023-03-11T20:47:54.839Z,101254.88
2023-03-11T20:50:22.745Z,101242.06
2023-03-11T20:52:49.948Z,101238.47
2023-03-11T20:55:16.435Z,101248.34
2023-03-11T20:57:42.673Z,101256.19
2023-03-11T21:00:11.869Z,101245.25
2023-03-11T21:02:40.603Z,101247.00
2023-03-11T21:05:08.885Z,101254.16
2023-03-11T21:07:35.817Z,101240.38
2023-03-11T21:10:04.465Z,101244.63
2023-03-11T21:12:31.462Z,101250.97
2023-03-11T21:14:57.949Z,101246.31
2023-03-11T21:17:24.380Z,101256.59
2023-03-11T21:19:50.722Z,101251.56
2023-03-11T21:22:17.319Z,101247.97
2023-03-11T21:24:43.729Z,101238.19
2023-03-11T21:27:10.131Z,101256.88
2023-03-11T21:29:36.443Z,101252.81
2023-03-11T21:32:03.054Z,101250.94
2023-03-11T21:34:29.668Z,101249.41
2023-03-11T21:36:55.986Z,101251.75
2023-03-11T21:39:22.346Z,101252.44
2023-03-11T21:41:48.804Z,101240.06
2023-03-11T21:44:15.078Z,101239.56
2023-03-11T21:46:41.511Z,101235.59
2023-03-11T21:49:07.847Z,101244.22
2023-03-11T21:51:34.561Z,101235.22
2023-03-11T21:54:00.846Z,101256.03
2023-03-11T21:56:27.247Z,101225.19
2023-03-11T21:58:53.802Z,101245.88
2023-03-11T22:01:20.288Z,101230.34
2023-03-11T22:03:46.703Z,101239.09
2023-03-11T22:06:13.146Z,101226.81
2023-03-11T22:08:39.934Z,101251.34
2023-03-11T22:11:08.903Z,101248.66
2023-03-11T22:13:35.542Z,101238.72
2023-03-11T22:16:06.344Z,101236.72
2023-03-11T22:18:33.290Z,101245.47
2023-03-11T22:21:00.258Z,101241.38
2023-03-11T22:23:27.343Z,101235.28
2023-03-11T22:25:53.659Z,101227.47
2023-03-11T22:28:20.121Z,101234.91
2023-03-11T22:30:46.672Z,101241.34
2023-03-11T22:33:13.103Z,101228.84
2023-03-11T22:35:39.406Z,101238.50
2023-03-11T22:38:06.456Z,101227.88
2023-03-11T22:40:34.266Z,101241.75
2023-03-11T22:43:00.664Z,101220.97
2023-03-11T22:45:27.068Z,101213.06
2023-03-11T22:47:53.417Z,101211.31
2023-03-11T22:50:20.090Z,101217.59
2023-03-11T22:52:46.412Z,101218.31
2023-03-11T22:55:12.760Z,101207.47
2023-03-11T22:57:39.173Z,101229.28
2023-03-11T23:00:14.301Z,101231.03
2023-03-11T23:02:40.674Z,101218.09
2023-03-11T23:05:07.409Z,101227.31
2023-03-11T23:07:33.744Z,101228.19
2023-03-11T23:10:00.108Z,101212.22
2023-03-11T23:12:26.552Z,101210.44
2023-03-11T23:14:52.912Z,101209.50
2023-03-11T23:17:19.226Z,101196.19
2023-03-11T23:19:45.540Z,101208.28
2023-03-11T23:22:11.867Z,101217.56
2023-03-11T23:24:38.172Z,101217.41
2023-03-11T23:27:04.527Z,101223.00
2023-03-11T23:29:31.206Z,101227.09
2023-03-11T23:31:57.630Z,101220.19
2023-03-11T23:34:23.882Z,101225.19
2023-03-11T23:36:50.371Z,101205.47
2023-03-11T23:39:16.624Z,101219.00
2023-03-11T23:41:42.964Z,101217.47
2023-03-11T23:44:09.320Z,101210.81
2023-03-11T23:46:35.709Z,101215.47
2023-03-11T23:49:02.136Z,101207.06
2023-03-11T23:51:28.402Z,101214.41
2023-03-11T23:53:54.766Z,101211.97
2023-03-11T23:56:21.148Z,101209.50
2023-03-11T23:58:47.514Z,101195.50
